KSZY

Details ICAO KSZY
Name ROBERT SIBLEY
Region United States
Timezone America/Chicago (UTC-6.0)
Plans Departing 2
Arriving 3
Stats Elevation 610 ft / 186 m (AMSL)
Location 35.202891° -88.498214°
Runways 1
Magnetic Variation 2.424° W
Sunrise 2017-12-15 12:56:43 UTC / 2017-12-15 06:56:43 Local
Sunset 2017-12-15 22:44:35 UTC / 2017-12-15 16:44:35 Local
Advertisement - Login to hide

Runways

ID Width Length Bearing (true) Bearing (mag) Surface Threshold Offset Overrun Length
17 75 ft / 23 m 5,013 ft / 1,528 m 164.95° 167.37° Asphalt 0 ft / 0 m 0 ft / 0 m
35 75 ft / 23 m 5,013 ft / 1,528 m 344.95° 347.37° Asphalt 0 ft / 0 m 287 ft / 87 m

Map

Weather


0- 5 10 15 20 25 30 35+ Temperature / ° C

Clouds and Precipitation
Forecast for 2017-12-16 06:00 UTC. Updated 27 minutes ago

Ground ~20,000 ft ~40,000 ft Winds

METAR

KSZY 160335Z AUTO 20003KT 10SM CLR M01/M04 A3020 RMK A01

TAF

Not found

Frequencies

Recorded 118.42 MHz AWOS 3
Unicom 122.70 MHz CTAF/UNICOM
Warning: Do not use this data for real-world aviation or navigation. No guarantee of current accuracy is given.